sensor_id;sensor_type;location;lat;lon;timestamp;pressure;altitude;pressure_sealevel;temperature;humidity
80911;BME280;70359;51.420;7.032;2023-09-30T00:00:12;1010.3;;;15.9;61.94141
80911;BME280;70359;51.420;7.032;2023-09-30T00:02:37;1010.252;;;15.88;61.73242
80911;BME280;70359;51.420;7.032;2023-09-30T00:05:02;1010.275;;;15.89;62.08789
80911;BME280;70359;51.420;7.032;2023-09-30T00:07:27;1010.227;;;15.88;62.20117
80911;BME280;70359;51.420;7.032;2023-09-30T00:09:53;1010.26;;;15.85;62.34473
80911;BME280;70359;51.420;7.032;2023-09-30T00:12:17;1010.307;;;15.86;62.0498
80911;BME280;70359;51.420;7.032;2023-09-30T00:14:42;1010.323;;;15.86;62.07129
80911;BME280;70359;51.420;7.032;2023-09-30T00:17:07;1010.388;;;15.88;62.38477
80911;BME280;70359;51.420;7.032;2023-09-30T00:19:32;1010.454;;;15.88;62.37305
80911;BME280;70359;51.420;7.032;2023-09-30T00:21:57;1010.496;;;15.86;62.38184
80911;BME280;70359;51.420;7.032;2023-09-30T00:24:22;1010.484;;;15.85;62.54102
80911;BME280;70359;51.420;7.032;2023-09-30T00:26:47;1010.386;;;15.84;62.72266
80911;BME280;70359;51.420;7.032;2023-09-30T00:29:13;1010.291;;;15.84;62.67676
80911;BME280;70359;51.420;7.032;2023-09-30T00:31:37;1010.312;;;15.85;62.49414
80911;BME280;70359;51.420;7.032;2023-09-30T00:34:02;1010.304;;;15.86;62.38184
80911;BME280;70359;51.420;7.032;2023-09-30T00:36:27;1010.243;;;15.86;62.39355
80911;BME280;70359;51.420;7.032;2023-09-30T00:38:52;1010.254;;;15.88;62.51074
80911;BME280;70359;51.420;7.032;2023-09-30T00:41:17;1010.323;;;15.9;62.91309
80911;BME280;70359;51.420;7.032;2023-09-30T00:43:42;1010.322;;;15.88;62.71582
80911;BME280;70359;51.420;7.032;2023-09-30T00:46:10;1010.339;;;15.89;62.47754
80911;BME280;70359;51.420;7.032;2023-09-30T00:48:32;1010.325;;;15.92;62.51563
80911;BME280;70359;51.420;7.032;2023-09-30T00:50:57;1010.322;;;15.92;62.57227
80911;BME280;70359;51.420;7.032;2023-09-30T00:53:22;1010.322;;;15.91;62.59375
80911;BME280;70359;51.420;7.032;2023-09-30T00:55:47;1010.314;;;15.9;62.61719
80911;BME280;70359;51.420;7.032;2023-09-30T00:58:12;1010.257;;;15.89;62.58008
80911;BME280;70359;51.420;7.032;2023-09-30T01:00:37;1010.262;;;15.89;62.58008
80911;BME280;70359;51.420;7.032;2023-09-30T01:03:03;1010.355;;;15.89;62.32715
80911;BME280;70359;51.420;7.032;2023-09-30T01:05:27;1010.419;;;15.88;62.46484
80911;BME280;70359;51.420;7.032;2023-09-30T01:07:52;1010.54;;;15.92;62.42383
80911;BME280;70359;51.420;7.032;2023-09-30T01:10:17;1010.7;;;15.88;62.33887
80911;BME280;70359;51.420;7.032;2023-09-30T01:12:42;1010.755;;;15.9;62.74219
80911;BME280;70359;51.420;7.032;2023-09-30T01:15:08;1010.478;;;15.85;63.0332
80911;BME280;70359;51.420;7.032;2023-09-30T01:17:32;1010.295;;;15.89;63.15234
80911;BME280;70359;51.420;7.032;2023-09-30T01:19:57;1010.237;;;15.89;63.2666
80911;BME280;70359;51.420;7.032;2023-09-30T01:22:22;1010.218;;;15.86;62.78223
80911;BME280;70359;51.420;7.032;2023-09-30T01:24:47;1010.262;;;15.89;62.76367
80911;BME280;70359;51.420;7.032;2023-09-30T01:27:12;1010.226;;;15.86;62.70215
80911;BME280;70359;51.420;7.032;2023-09-30T01:29:37;1010.24;;;15.88;62.89941
80911;BME280;70359;51.420;7.032;2023-09-30T01:32:02;1010.323;;;15.87;62.86426
80911;BME280;70359;51.420;7.032;2023-09-30T01:34:27;1010.403;;;15.86;63.17188
80911;BME280;70359;51.420;7.032;2023-09-30T01:36:52;1010.412;;;15.86;62.99902
80911;BME280;70359;51.420;7.032;2023-09-30T01:39:17;1010.411;;;15.83;63.13184
80911;BME280;70359;51.420;7.032;2023-09-30T01:41:42;1010.466;;;15.84;63.48926
80911;BME280;70359;51.420;7.032;2023-09-30T01:44:08;1010.503;;;15.87;63.37891
80911;BME280;70359;51.420;7.032;2023-09-30T01:46:32;1010.481;;;15.88;63.16211
80911;BME280;70359;51.420;7.032;2023-09-30T01:48:57;1010.48;;;15.89;63.25586
80911;BME280;70359;51.420;7.032;2023-09-30T01:51:22;1010.456;;;15.91;63.12109
80911;BME280;70359;51.420;7.032;2023-09-30T01:53:47;1010.495;;;15.92;63.06641
80911;BME280;70359;51.420;7.032;2023-09-30T01:56:12;1010.508;;;15.89;63.01465
80911;BME280;70359;51.420;7.032;2023-09-30T01:58:37;1010.596;;;15.91;63.13184
80911;BME280;70359;51.420;7.032;2023-09-30T02:01:05;1010.555;;;15.92;62.90625
80911;BME280;70359;51.420;7.032;2023-09-30T02:03:27;1010.606;;;15.92;62.79004
80911;BME280;70359;51.420;7.032;2023-09-30T02:05:52;1010.699;;;15.93;62.40332
80911;BME280;70359;51.420;7.032;2023-09-30T02:08:17;1010.81;;;15.92;62.72266
80911;BME280;70359;51.420;7.032;2023-09-30T02:10:42;1010.857;;;15.89;62.29297
80911;BME280;70359;51.420;7.032;2023-09-30T02:13:07;1010.844;;;15.9;62.78906
80911;BME280;70359;51.420;7.032;2023-09-30T02:15:32;1010.752;;;15.91;62.49121
80911;BME280;70359;51.420;7.032;2023-09-30T02:17:57;1010.749;;;15.92;62.48145
80911;BME280;70359;51.420;7.032;2023-09-30T02:20:24;1010.713;;;15.87;62.24609
80911;BME280;70359;51.420;7.032;2023-09-30T02:22:47;1010.665;;;15.84;62.5957
80911;BME280;70359;51.420;7.032;2023-09-30T02:25:13;1010.649;;;15.81;62.37402
80911;BME280;70359;51.420;7.032;2023-09-30T02:27:38;1010.574;;;15.81;62.55566
80911;BME280;70359;51.420;7.032;2023-09-30T02:30:03;1010.593;;;15.77;62.16211
80911;BME280;70359;51.420;7.032;2023-09-30T02:32:28;1010.574;;;15.76;62.11621
80911;BME280;70359;51.420;7.032;2023-09-30T02:34:53;1010.515;;;15.74;62.10254
80911;BME280;70359;51.420;7.032;2023-09-30T02:37:18;1010.447;;;15.7;62.37012
80911;BME280;70359;51.420;7.032;2023-09-30T02:39:43;1010.43;;;15.68;62.50488
80911;BME280;70359;51.420;7.032;2023-09-30T02:42:08;1010.499;;;15.67;62.22949
80911;BME280;70359;51.420;7.032;2023-09-30T02:44:33;1010.532;;;15.66;62.31836
80911;BME280;70359;51.420;7.032;2023-09-30T02:46:58;1010.495;;;15.66;62.28516
80911;BME280;70359;51.420;7.032;2023-09-30T02:49:23;1010.503;;;15.65;62.3291
80911;BME280;70359;51.420;7.032;2023-09-30T02:51:48;1010.568;;;15.64;62.20117
80911;BME280;70359;51.420;7.032;2023-09-30T02:54:14;1010.644;;;15.63;62.24609
80911;BME280;70359;51.420;7.032;2023-09-30T02:56:38;1010.696;;;15.62;62.01563
80911;BME280;70359;51.420;7.032;2023-09-30T02:59:03;1010.811;;;15.6;62.16211
80911;BME280;70359;51.420;7.032;2023-09-30T03:01:28;1010.759;;;15.6;62.15039
80911;BME280;70359;51.420;7.032;2023-09-30T03:03:53;1010.692;;;15.61;62.4834
80911;BME280;70359;51.420;7.032;2023-09-30T03:06:18;1010.653;;;15.59;62.35547
80911;BME280;70359;51.420;7.032;2023-09-30T03:08:43;1010.693;;;15.6;62.52734
80911;BME280;70359;51.420;7.032;2023-09-30T03:11:08;1010.722;;;15.61;62.50684
80911;BME280;70359;51.420;7.032;2023-09-30T03:13:33;1010.726;;;15.61;62.27832
80911;BME280;70359;51.420;7.032;2023-09-30T03:15:58;1010.687;;;15.58;62.25098
80911;BME280;70359;51.420;7.032;2023-09-30T03:18:23;1010.694;;;15.49;62.69629
80911;BME280;70359;51.420;7.032;2023-09-30T03:20:48;1010.726;;;15.47;62.7832
80911;BME280;70359;51.420;7.032;2023-09-30T03:23:13;1010.776;;;15.47;62.57813
80911;BME280;70359;51.420;7.032;2023-09-30T03:25:38;1010.786;;;15.47;62.7832
80911;BME280;70359;51.420;7.032;2023-09-30T03:28:03;1010.737;;;15.45;62.90723
80911;BME280;70359;51.420;7.032;2023-09-30T03:30:29;1010.653;;;15.47;62.59082
80911;BME280;70359;51.420;7.032;2023-09-30T03:32:53;1010.724;;;15.39;62.94531
80911;BME280;70359;51.420;7.032;2023-09-30T03:35:18;1010.698;;;15.43;63.11035
80911;BME280;70359;51.420;7.032;2023-09-30T03:37:43;1010.645;;;15.45;63.04297
80911;BME280;70359;51.420;7.032;2023-09-30T03:40:08;1010.576;;;15.41;62.85645
80911;BME280;70359;51.420;7.032;2023-09-30T03:42:33;1010.548;;;15.48;63.00293
80911;BME280;70359;51.420;7.032;2023-09-30T03:44:58;1010.514;;;15.47;62.72656
80911;BME280;70359;51.420;7.032;2023-09-30T03:47:23;1010.488;;;15.51;62.6875
80911;BME280;70359;51.420;7.032;2023-09-30T03:49:48;1010.523;;;15.54;62.58887
80911;BME280;70359;51.420;7.032;2023-09-30T03:52:13;1010.55;;;15.48;62.43066
80911;BME280;70359;51.420;7.032;2023-09-30T03:54:38;1010.485;;;15.43;62.9502
80911;BME280;70359;51.420;7.032;2023-09-30T03:57:03;1010.5;;;15.38;63.22949
80911;BME280;70359;51.420;7.032;2023-09-30T03:59:28;1010.587;;;15.41;63.03809
80911;BME280;70359;51.420;7.032;2023-09-30T04:01:53;1010.602;;;15.4;63.06055
80911;BME280;70359;51.420;7.032;2023-09-30T04:04:18;1010.541;;;15.41;62.94727
80911;BME280;70359;51.420;7.032;2023-09-30T04:06:43;1010.607;;;15.3;62.98828
80911;BME280;70359;51.420;7.032;2023-09-30T04:09:08;1010.705;;;15.21;63.57031
80911;BME280;70359;51.420;7.032;2023-09-30T04:11:33;1010.583;;;15.22;63.61719
80911;BME280;70359;51.420;7.032;2023-09-30T04:13:58;1010.505;;;15.23;63.04785
80911;BME280;70359;51.420;7.032;2023-09-30T04:16:23;1010.479;;;15.27;63.05273
80911;BME280;70359;51.420;7.032;2023-09-30T04:18:48;1010.547;;;15.25;63.27734
80911;BME280;70359;51.420;7.032;2023-09-30T04:21:13;1010.698;;;15.24;63.25488
80911;BME280;70359;51.420;7.032;2023-09-30T04:23:38;1010.752;;;15.22;63.35449
80911;BME280;70359;51.420;7.032;2023-09-30T04:26:03;1010.618;;;15.24;63.24219
80911;BME280;70359;51.420;7.032;2023-09-30T04:28:28;1010.491;;;15.32;63.01465
80911;BME280;70359;51.420;7.032;2023-09-30T04:30:53;1010.404;;;15.31;62.73926
80911;BME280;70359;51.420;7.032;2023-09-30T04:33:18;1010.467;;;15.32;62.70508
80911;BME280;70359;51.420;7.032;2023-09-30T04:35:43;1010.525;;;15.23;62.8418
80911;BME280;70359;51.420;7.032;2023-09-30T04:38:08;1010.596;;;15.1;63.61133
80911;BME280;70359;51.420;7.032;2023-09-30T04:40:33;1010.646;;;15.09;63.42676
80911;BME280;70359;51.420;7.032;2023-09-30T04:42:58;1010.71;;;15.05;63.61719
80911;BME280;70359;51.420;7.032;2023-09-30T04:45:23;1010.726;;;15.02;63.57617
80911;BME280;70359;51.420;7.032;2023-09-30T04:47:48;1010.751;;;15.06;63.52539
80911;BME280;70359;51.420;7.032;2023-09-30T04:50:13;1010.838;;;15.06;63.16016
80911;BME280;70359;51.420;7.032;2023-09-30T04:52:38;1010.894;;;15.03;63.39648
80911;BME280;70359;51.420;7.032;2023-09-30T04:55:03;1010.855;;;15;63.33398
80911;BME280;70359;51.420;7.032;2023-09-30T04:57:28;1010.92;;;14.89;63.90039
80911;BME280;70359;51.420;7.032;2023-09-30T04:59:53;1010.973;;;14.9;63.73047
80911;BME280;70359;51.420;7.032;2023-09-30T05:02:18;1010.925;;;14.85;64.07813
80911;BME280;70359;51.420;7.032;2023-09-30T05:04:43;1010.962;;;14.86;64.08984
80911;BME280;70359;51.420;7.032;2023-09-30T05:07:08;1010.981;;;14.94;63.7832
80911;BME280;70359;51.420;7.032;2023-09-30T05:09:33;1011.042;;;14.99;63.8584
80911;BME280;70359;51.420;7.032;2023-09-30T05:11:58;1011.068;;;14.95;63.625
80911;BME280;70359;51.420;7.032;2023-09-30T05:14:23;1011.101;;;14.89;63.81934
80911;BME280;70359;51.420;7.032;2023-09-30T05:16:48;1011.087;;;14.87;64.08105
80911;BME280;70359;51.420;7.032;2023-09-30T05:19:13;1011.149;;;14.83;64.25684
80911;BME280;70359;51.420;7.032;2023-09-30T05:21:38;1011.105;;;14.81;64.15332
80911;BME280;70359;51.420;7.032;2023-09-30T05:24:03;1011.104;;;14.82;64.41504
80911;BME280;70359;51.420;7.032;2023-09-30T05:26:28;1011.077;;;14.85;64.10156
80911;BME280;70359;51.420;7.032;2023-09-30T05:28:53;1011.082;;;14.82;64.46094
80911;BME280;70359;51.420;7.032;2023-09-30T05:31:18;1011.088;;;14.81;64.27734
80911;BME280;70359;51.420;7.032;2023-09-30T05:33:43;1011.115;;;14.84;64.38477
80911;BME280;70359;51.420;7.032;2023-09-30T05:36:08;1011.109;;;14.82;64.50684
80911;BME280;70359;51.420;7.032;2023-09-30T05:38:33;1011.165;;;14.83;64.56543
80911;BME280;70359;51.420;7.032;2023-09-30T05:40:58;1011.159;;;14.93;64.2832
80911;BME280;70359;51.420;7.032;2023-09-30T05:43:23;1011.15;;;15.05;63.74121
80911;BME280;70359;51.420;7.032;2023-09-30T05:45:48;1011.159;;;14.97;64.0957
80911;BME280;70359;51.420;7.032;2023-09-30T05:48:13;1011.17;;;14.92;64.16895
80911;BME280;70359;51.420;7.032;2023-09-30T05:50:38;1011.151;;;14.95;64.11523
80911;BME280;70359;51.420;7.032;2023-09-30T05:53:03;1011.142;;;14.86;64.25098
80911;BME280;70359;51.420;7.032;2023-09-30T05:55:28;1011.128;;;14.88;64.43555
80911;BME280;70359;51.420;7.032;2023-09-30T05:57:53;1011.125;;;14.91;64.26855
80911;BME280;70359;51.420;7.032;2023-09-30T06:00:18;1011.118;;;14.9;64.32422
80911;BME280;70359;51.420;7.032;2023-09-30T06:02:43;1011.097;;;14.9;64.4502
80911;BME280;70359;51.420;7.032;2023-09-30T06:05:08;1011.105;;;14.85;64.19238
80911;BME280;70359;51.420;7.032;2023-09-30T06:07:33;1011.118;;;14.85;64.6377
80911;BME280;70359;51.420;7.032;2023-09-30T06:09:58;1011.098;;;14.87;64.87988
80911;BME280;70359;51.420;7.032;2023-09-30T06:12:23;1011.044;;;14.78;65.01465
80911;BME280;70359;51.420;7.032;2023-09-30T06:14:48;1011.07;;;14.79;65.15332
80911;BME280;70359;51.420;7.032;2023-09-30T06:17:13;1011.15;;;14.89;64.93848
80911;BME280;70359;51.420;7.032;2023-09-30T06:19:38;1011.201;;;14.84;65.00098
80911;BME280;70359;51.420;7.032;2023-09-30T06:22:03;1011.215;;;14.94;64.96875
80911;BME280;70359;51.420;7.032;2023-09-30T06:24:28;1011.227;;;14.97;64.84863
80911;BME280;70359;51.420;7.032;2023-09-30T06:26:53;1011.299;;;14.97;64.93848
80911;BME280;70359;51.420;7.032;2023-09-30T06:29:18;1011.262;;;14.94;64.95703
80911;BME280;70359;51.420;7.032;2023-09-30T06:31:43;1011.287;;;14.99;65
80911;BME280;70359;51.420;7.032;2023-09-30T06:34:08;1011.304;;;15.12;64.51563
80911;BME280;70359;51.420;7.032;2023-09-30T06:36:33;1011.233;;;15.12;64.47168
80911;BME280;70359;51.420;7.032;2023-09-30T06:38:58;1011.23;;;15.26;64.03418
80911;BME280;70359;51.420;7.032;2023-09-30T06:41:23;1011.264;;;15.32;64.06641
80911;BME280;70359;51.420;7.032;2023-09-30T06:43:48;1011.248;;;15.29;64.23242
80911;BME280;70359;51.420;7.032;2023-09-30T06:46:13;1011.265;;;15.35;64.16113
80911;BME280;70359;51.420;7.032;2023-09-30T06:48:38;1011.276;;;15.45;63.98145
80911;BME280;70359;51.420;7.032;2023-09-30T06:51:03;1011.306;;;15.49;63.96484
80911;BME280;70359;51.420;7.032;2023-09-30T06:53:28;1011.315;;;15.58;63.63477
80911;BME280;70359;51.420;7.032;2023-09-30T06:55:55;1011.387;;;15.58;63.90918
80911;BME280;70359;51.420;7.032;2023-09-30T06:58:18;1011.418;;;15.64;63.67676
80911;BME280;70359;51.420;7.032;2023-09-30T07:00:44;1011.395;;;15.61;63.87891
80911;BME280;70359;51.420;7.032;2023-09-30T07:03:08;1011.321;;;15.75;63.40625
80911;BME280;70359;51.420;7.032;2023-09-30T07:05:33;1011.325;;;15.74;63.79395
80911;BME280;70359;51.420;7.032;2023-09-30T07:07:58;1011.349;;;15.77;63.85645
80911;BME280;70359;51.420;7.032;2023-09-30T07:10:23;1011.367;;;15.87;63.26465
80911;BME280;70359;51.420;7.032;2023-09-30T07:12:48;1011.417;;;15.86;63.64063
80911;BME280;70359;51.420;7.032;2023-09-30T07:15:13;1011.481;;;15.96;63.26465
80911;BME280;70359;51.420;7.032;2023-09-30T07:17:38;1011.47;;;15.96;63.17285
80911;BME280;70359;51.420;7.032;2023-09-30T07:20:04;1011.519;;;16;63.4668
80911;BME280;70359;51.420;7.032;2023-09-30T07:22:28;1011.487;;;16;63.59082
80911;BME280;70359;51.420;7.032;2023-09-30T07:24:53;1011.531;;;15.98;63.52051
80911;BME280;70359;51.420;7.032;2023-09-30T07:27:18;1011.633;;;16.05;63.3584
80911;BME280;70359;51.420;7.032;2023-09-30T07:29:43;1011.669;;;16.1;63.35449
80911;BME280;70359;51.420;7.032;2023-09-30T07:32:09;1011.802;;;16.04;63.81543
80911;BME280;70359;51.420;7.032;2023-09-30T07:34:33;1011.882;;;16.09;63.60449
80911;BME280;70359;51.420;7.032;2023-09-30T07:36:58;1012.057;;;16.06;63.80664
80911;BME280;70359;51.420;7.032;2023-09-30T07:39:23;1012.076;;;16.09;64.48535
80911;BME280;70359;51.420;7.032;2023-09-30T07:41:48;1012.057;;;16.07;64.62012
80911;BME280;70359;51.420;7.032;2023-09-30T07:44:13;1012.089;;;16.15;64.26563
80911;BME280;70359;51.420;7.032;2023-09-30T07:46:38;1012.12;;;16.21;64.16016
80911;BME280;70359;51.420;7.032;2023-09-30T07:49:03;1012.197;;;16.34;63.86914
80911;BME280;70359;51.420;7.032;2023-09-30T07:51:28;1012.203;;;16.35;63.99805
80911;BME280;70359;51.420;7.032;2023-09-30T07:53:53;1012.198;;;16.47;63.1543
80911;BME280;70359;51.420;7.032;2023-09-30T07:56:18;1012.192;;;16.38;63.85254
80911;BME280;70359;51.420;7.032;2023-09-30T07:58:43;1012.203;;;16.5;63.42188
80911;BME280;70359;51.420;7.032;2023-09-30T08:01:08;1012.235;;;16.53;63.78223
80911;BME280;70359;51.420;7.032;2023-09-30T08:03:33;1012.2;;;16.59;63.49316
80911;BME280;70359;51.420;7.032;2023-09-30T08:05:58;1012.169;;;16.66;63.58203
80911;BME280;70359;51.420;7.032;2023-09-30T08:08:23;1012.167;;;16.69;63.64453
80911;BME280;70359;51.420;7.032;2023-09-30T08:10:48;1012.202;;;16.67;63.24121
80911;BME280;70359;51.420;7.032;2023-09-30T08:13:13;1012.177;;;16.73;63.45508
80911;BME280;70359;51.420;7.032;2023-09-30T08:15:38;1012.233;;;16.81;63.4668
80911;BME280;70359;51.420;7.032;2023-09-30T08:18:03;1012.238;;;16.82;63.30859
80911;BME280;70359;51.420;7.032;2023-09-30T08:20:28;1012.247;;;16.85;63.34668
80911;BME280;70359;51.420;7.032;2023-09-30T08:22:53;1012.291;;;16.84;63.3916
80911;BME280;70359;51.420;7.032;2023-09-30T08:25:18;1012.347;;;16.95;63.34766
80911;BME280;70359;51.420;7.032;2023-09-30T08:27:43;1012.347;;;16.95;63.09668
80911;BME280;70359;51.420;7.032;2023-09-30T08:30:09;1012.411;;;17.06;63.35352
80911;BME280;70359;51.420;7.032;2023-09-30T08:32:34;1012.484;;;17.06;63.61719
80911;BME280;70359;51.420;7.032;2023-09-30T08:34:58;1012.518;;;17.17;63.36816
80911;BME280;70359;51.420;7.032;2023-09-30T08:37:23;1012.493;;;17.24;63.63184
80911;BME280;70359;51.420;7.032;2023-09-30T08:39:49;1012.408;;;17.32;63.87305
80911;BME280;70359;51.420;7.032;2023-09-30T08:42:13;1012.413;;;17.37;63.9248
80911;BME280;70359;51.420;7.032;2023-09-30T08:44:39;1012.411;;;17.51;63.55469
80911;BME280;70359;51.420;7.032;2023-09-30T08:47:03;1012.417;;;17.64;63.35449
80911;BME280;70359;51.420;7.032;2023-09-30T08:49:28;1012.366;;;17.75;62.7168
80911;BME280;70359;51.420;7.032;2023-09-30T08:51:53;1012.361;;;17.77;63.20117
80911;BME280;70359;51.420;7.032;2023-09-30T08:54:18;1012.252;;;17.96;62.37793
80911;BME280;70359;51.420;7.032;2023-09-30T08:56:44;1012.261;;;17.95;62.85938
80911;BME280;70359;51.420;7.032;2023-09-30T08:59:08;1012.253;;;18.14;61.12402
80911;BME280;70359;51.420;7.032;2023-09-30T09:01:33;1012.298;;;18;60.87695
80911;BME280;70359;51.420;7.032;2023-09-30T09:03:58;1012.247;;;18.06;60.71191
80911;BME280;70359;51.420;7.032;2023-09-30T09:06:24;1012.215;;;18.14;60.29688
80911;BME280;70359;51.420;7.032;2023-09-30T09:08:48;1012.172;;;18.1;59.86621
80911;BME280;70359;51.420;7.032;2023-09-30T09:11:13;1012.113;;;18.14;60.46777
80911;BME280;70359;51.420;7.032;2023-09-30T09:13:49;1012.088;;;18.21;59.61523
80911;BME280;70359;51.420;7.032;2023-09-30T09:16:09;1012.109;;;18.18;59.21973
80911;BME280;70359;51.420;7.032;2023-09-30T09:18:34;1012.12;;;18.18;58.73535
80911;BME280;70359;51.420;7.032;2023-09-30T09:20:53;1012.067;;;18.19;59.12793
80911;BME280;70359;51.420;7.032;2023-09-30T09:23:18;1012.067;;;18.18;59.63477
80911;BME280;70359;51.420;7.032;2023-09-30T09:25:43;1012.044;;;18.27;58.5166
80911;BME280;70359;51.420;7.032;2023-09-30T09:28:08;1012.069;;;18.31;59.14355
80911;BME280;70359;51.420;7.032;2023-09-30T09:30:34;1012.055;;;18.33;59.13672
80911;BME280;70359;51.420;7.032;2023-09-30T09:33:02;1012.109;;;18.27;58.81738
80911;BME280;70359;51.420;7.032;2023-09-30T09:35:23;1012.131;;;18.28;59.12891
80911;BME280;70359;51.420;7.032;2023-09-30T09:37:49;1012.105;;;18.28;58.71387
80911;BME280;70359;51.420;7.032;2023-09-30T09:40:14;1012.085;;;18.31;56.83984
80911;BME280;70359;51.420;7.032;2023-09-30T09:42:38;1012.081;;;18.29;57.16113
80911;BME280;70359;51.420;7.032;2023-09-30T09:45:04;1012.083;;;18.18;56.53516
80911;BME280;70359;51.420;7.032;2023-09-30T09:47:29;1012.13;;;18.1;57.51563
80911;BME280;70359;51.420;7.032;2023-09-30T09:49:54;1012.145;;;18.12;57.02344
80911;BME280;70359;51.420;7.032;2023-09-30T09:52:19;1012.112;;;18.19;58.50684
80911;BME280;70359;51.420;7.032;2023-09-30T09:54:44;1012.078;;;18.33;58.63965
80911;BME280;70359;51.420;7.032;2023-09-30T09:57:09;1012.071;;;18.38;58.23145
80911;BME280;70359;51.420;7.032;2023-09-30T09:59:34;1012.068;;;18.41;57.33691
80911;BME280;70359;51.420;7.032;2023-09-30T10:01:59;1012.13;;;18.39;57.98047
80911;BME280;70359;51.420;7.032;2023-09-30T10:04:24;1012.116;;;18.35;57.35352
80911;BME280;70359;51.420;7.032;2023-09-30T10:06:50;1012.078;;;18.42;57.13086
80911;BME280;70359;51.420;7.032;2023-09-30T10:09:14;1012.117;;;18.54;56.18848
80911;BME280;70359;51.420;7.032;2023-09-30T10:11:39;1012.192;;;18.56;56.30566
80911;BME280;70359;51.420;7.032;2023-09-30T10:14:04;1012.364;;;18.66;54.51953
80911;BME280;70359;51.420;7.032;2023-09-30T10:21:19;1012.434;;;18.65;55.04785
80911;BME280;70359;51.420;7.032;2023-09-30T10:23:44;1012.408;;;18.7;54.09668
80911;BME280;70359;51.420;7.032;2023-09-30T10:26:22;1012.392;;;18.66;54.61133
80911;BME280;70359;51.420;7.032;2023-09-30T10:28:37;1012.333;;;18.73;54.3418
80911;BME280;70359;51.420;7.032;2023-09-30T10:33:24;1012.37;;;18.78;54.85645
80911;BME280;70359;51.420;7.032;2023-09-30T10:35:49;1012.406;;;18.84;53.92773
80911;BME280;70359;51.420;7.032;2023-09-30T10:40:39;1012.515;;;18.82;54.13477
80911;BME280;70359;51.420;7.032;2023-09-30T10:43:04;1012.545;;;18.78;54.00195
80911;BME280;70359;51.420;7.032;2023-09-30T10:47:54;1012.463;;;18.72;55.24219
80911;BME280;70359;51.420;7.032;2023-09-30T10:52:44;1012.517;;;18.76;53.71094
80911;BME280;70359;51.420;7.032;2023-09-30T10:55:09;1012.5;;;18.82;53.19824
80911;BME280;70359;51.420;7.032;2023-09-30T10:57:34;1012.414;;;18.8;52.83789
80911;BME280;70359;51.420;7.032;2023-09-30T11:00:11;1012.38;;;18.85;53.66406
80911;BME280;70359;51.420;7.032;2023-09-30T11:02:24;1012.31;;;18.89;52.84863
80911;BME280;70359;51.420;7.032;2023-09-30T11:04:49;1012.299;;;18.99;51.72656
80911;BME280;70359;51.420;7.032;2023-09-30T11:07:14;1012.288;;;18.93;51.16602
80911;BME280;70359;51.420;7.032;2023-09-30T11:09:39;1012.257;;;18.99;52.00488
80911;BME280;70359;51.420;7.032;2023-09-30T11:12:04;1012.284;;;19.01;51.21973
80911;BME280;70359;51.420;7.032;2023-09-30T11:14:29;1012.211;;;19.04;52.0918
80911;BME280;70359;51.420;7.032;2023-09-30T11:16:54;1012.219;;;19.04;51.74512
80911;BME280;70359;51.420;7.032;2023-09-30T11:19:19;1012.217;;;19.11;53.36035
80911;BME280;70359;51.420;7.032;2023-09-30T11:21:44;1012.156;;;19.09;53.1377
80911;BME280;70359;51.420;7.032;2023-09-30T11:24:09;1012.048;;;19.18;52.25879
80911;BME280;70359;51.420;7.032;2023-09-30T11:26:34;1012.018;;;19.16;52.55664
80911;BME280;70359;51.420;7.032;2023-09-30T11:29:04;1012.047;;;19.19;51.38086
80911;BME280;70359;51.420;7.032;2023-09-30T11:31:24;1012.043;;;19.17;51.2041
80911;BME280;70359;51.420;7.032;2023-09-30T11:33:53;1011.997;;;19.23;51.46582
80911;BME280;70359;51.420;7.032;2023-09-30T11:36:14;1011.977;;;19.12;50.91016
80911;BME280;70359;51.420;7.032;2023-09-30T11:38:43;1011.968;;;19.25;51.20215
80911;BME280;70359;51.420;7.032;2023-09-30T11:41:17;1011.94;;;19.13;48.0293
80911;BME280;70359;51.420;7.032;2023-09-30T11:43:29;1011.988;;;19.18;48.53223
80911;BME280;70359;51.420;7.032;2023-09-30T11:46:03;1012.028;;;19.26;49.34082
80911;BME280;70359;51.420;7.032;2023-09-30T11:48:20;1012.009;;;19.24;49.52246
80911;BME280;70359;51.420;7.032;2023-09-30T11:50:51;1011.969;;;19.29;47.91895
80911;BME280;70359;51.420;7.032;2023-09-30T11:53:09;1011.944;;;19.32;48.07227
80911;BME280;70359;51.420;7.032;2023-09-30T11:55:34;1011.99;;;19.35;48.19238
80911;BME280;70359;51.420;7.032;2023-09-30T11:57:59;1011.988;;;19.35;48.08594
80911;BME280;70359;51.420;7.032;2023-09-30T12:00:24;1011.978;;;19.43;48.26953
80911;BME280;70359;51.420;7.032;2023-09-30T12:02:49;1011.962;;;19.42;47.8623
80911;BME280;70359;51.420;7.032;2023-09-30T12:05:14;1011.945;;;19.29;47.61719
80911;BME280;70359;51.420;7.032;2023-09-30T12:07:39;1011.991;;;19.33;48.43164
80911;BME280;70359;51.420;7.032;2023-09-30T12:10:04;1011.982;;;19.43;47.85156
80911;BME280;70359;51.420;7.032;2023-09-30T12:12:29;1011.926;;;19.42;48.84766
80911;BME280;70359;51.420;7.032;2023-09-30T12:14:54;1011.85;;;19.45;49.20996
80911;BME280;70359;51.420;7.032;2023-09-30T12:17:19;1011.802;;;19.27;46.73438
80911;BME280;70359;51.420;7.032;2023-09-30T12:19:44;1011.707;;;19.35;46.76563
80911;BME280;70359;51.420;7.032;2023-09-30T12:22:09;1011.648;;;19.4;47.66309
80911;BME280;70359;51.420;7.032;2023-09-30T12:24:34;1011.609;;;19.41;46.94629
80911;BME280;70359;51.420;7.032;2023-09-30T12:26:59;1011.66;;;19.4;48.44043
80911;BME280;70359;51.420;7.032;2023-09-30T12:29:24;1011.548;;;19.44;47.54102
80911;BME280;70359;51.420;7.032;2023-09-30T12:31:49;1011.473;;;19.44;48.24805
80911;BME280;70359;51.420;7.032;2023-09-30T12:34:14;1011.369;;;19.49;47.88086